Upstream stations:
Downstream station:
SHEF ID: DRMK1 NF Cottonwood Rvr nr Durham, KS
STATION TYPE:
PRECIP STAGE RIV-FLOW BAT-LOAD
in ft cfs volt
Ccp-Rev Ccp-Rev Ccp-Rev Ccp-Rev
(US/Central)
09/05 00:00 0.00 12.81 287 12.57
09/05 01:00 0.00 12.40 240 12.53
09/05 02:00 0.00 12.06 202 12.51
09/05 03:00 0.00 11.79 178 12.50
09/05 04:00 0.00 11.56 159 12.48
09/05 05:00 0.00 11.36 143 12.46
09/05 06:00 0.00 11.20 130 12.44
09/05 07:00 0.00 11.05 119 12.42
09/05 08:00 0.00 10.92 110 12.53
09/05 09:00 0.00 10.81 98 13.42
09/05 10:00 0.00 10.72 83 13.68
09/05 11:00 0.00 10.64 70 13.53
09/05 12:00 0.00 10.58 61 13.11
09/05 13:00 0.00 10.53 55 13.09
09/05 14:00 0.00 10.47 47 13.13
09/05 15:00 0.00 10.43 42 13.11
09/05 16:00 0.00 10.39 37 13.02
09/05 17:00 0.00 10.34 32 12.98
09/05 18:00 0.00 10.30 28 12.99
09/05 19:00 0.00 10.26 25 13.00
09/05 20:00 0.00 10.22 22 12.77
09/05 21:00 0.00 10.19 20 12.67
09/05 22:00 0.00 10.15 17 12.61
09/05 23:00 ---- ---- ---- ----